sensor_id;sensor_type;location;lat;lon;timestamp;pressure;altitude;pressure_sealevel;temperature;humidity
72585;BME280;60618;40.084;32.908;2023-05-02T00:01:48;89958.09;;;6.41;58.91
72585;BME280;60618;40.084;32.908;2023-05-02T00:04:15;89965.13;;;6.35;59.27
72585;BME280;60618;40.084;32.908;2023-05-02T00:06:42;89961.63;;;6.38;58.86
72585;BME280;60618;40.084;32.908;2023-05-02T00:09:09;89960.88;;;6.38;58.65
72585;BME280;60618;40.084;32.908;2023-05-02T00:11:36;89955.41;;;6.32;58.58
72585;BME280;60618;40.084;32.908;2023-05-02T00:14:03;89966.81;;;6.51;58.49
72585;BME280;60618;40.084;32.908;2023-05-02T00:16:29;89968.28;;;6.52;58.05
72585;BME280;60618;40.084;32.908;2023-05-02T00:18:59;89969.50;;;6.60;57.93
72585;BME280;60618;40.084;32.908;2023-05-02T00:21:25;89975.19;;;6.49;58.45
72585;BME280;60618;40.084;32.908;2023-05-02T00:23:52;89968.84;;;6.47;58.17
72585;BME280;60618;40.084;32.908;2023-05-02T00:26:19;89975.78;;;6.53;58.59
72585;BME280;60618;40.084;32.908;2023-05-02T00:28:46;89975.72;;;6.66;58.13
72585;BME280;60618;40.084;32.908;2023-05-02T00:31:13;89970.25;;;6.61;57.69
72585;BME280;60618;40.084;32.908;2023-05-02T00:33:40;89971.03;;;6.39;58.85
72585;BME280;60618;40.084;32.908;2023-05-02T00:36:17;89969.81;;;6.31;59.18
72585;BME280;60618;40.084;32.908;2023-05-02T00:38:45;89966.47;;;6.40;58.68
72585;BME280;60618;40.084;32.908;2023-05-02T00:41:11;89965.47;;;6.15;59.58
72585;BME280;60618;40.084;32.908;2023-05-02T00:43:38;89964.59;;;6.18;59.83
72585;BME280;60618;40.084;32.908;2023-05-02T00:46:05;89972.66;;;6.15;59.62
72585;BME280;60618;40.084;32.908;2023-05-02T00:48:33;89971.50;;;6.16;59.61
72585;BME280;60618;40.084;32.908;2023-05-02T00:51:03;89980.53;;;6.06;59.82
72585;BME280;60618;40.084;32.908;2023-05-02T00:53:30;89974.00;;;5.97;60.54
72585;BME280;60618;40.084;32.908;2023-05-02T00:55:58;89968.38;;;5.74;61.28
72585;BME280;60618;40.084;32.908;2023-05-02T00:58:25;89976.41;;;5.48;62.70
72585;BME280;60618;40.084;32.908;2023-05-02T01:12:01;89989.00;;;5.66;61.95
72585;BME280;60618;40.084;32.908;2023-05-02T01:14:41;89986.03;;;5.42;62.05
72585;BME280;60618;40.084;32.908;2023-05-02T01:17:11;89996.88;;;5.57;62.49
72585;BME280;60618;40.084;32.908;2023-05-02T01:19:44;89989.28;;;5.59;62.57
72585;BME280;60618;40.084;32.908;2023-05-02T01:22:14;89991.75;;;5.75;60.77
72585;BME280;60618;40.084;32.908;2023-05-02T01:27:41;89987.56;;;5.87;60.34
72585;BME280;60618;40.084;32.908;2023-05-02T01:30:10;89994.50;;;5.72;60.89
72585;BME280;60618;40.084;32.908;2023-05-02T01:32:39;89994.34;;;5.53;61.49
72585;BME280;60618;40.084;32.908;2023-05-02T01:35:08;89991.03;;;5.40;62.65
72585;BME280;60618;40.084;32.908;2023-05-02T01:37:38;89995.22;;;5.37;62.13
72585;BME280;60618;40.084;32.908;2023-05-02T01:40:07;89989.84;;;5.41;61.98
72585;BME280;60618;40.084;32.908;2023-05-02T01:42:36;89994.41;;;5.40;62.42
72585;BME280;60618;40.084;32.908;2023-05-02T01:45:05;89995.97;;;5.38;62.45
72585;BME280;60618;40.084;32.908;2023-05-02T01:47:34;89996.22;;;5.18;62.31
72585;BME280;60618;40.084;32.908;2023-05-02T01:50:06;89999.22;;;4.95;62.00
72585;BME280;60618;40.084;32.908;2023-05-02T01:52:35;89998.78;;;5.22;61.23
72585;BME280;60618;40.084;32.908;2023-05-02T01:55:03;89999.25;;;5.42;59.60
72585;BME280;60618;40.084;32.908;2023-05-02T01:57:31;90003.56;;;5.49;59.34
72585;BME280;60618;40.084;32.908;2023-05-02T01:59:59;90003.94;;;5.25;59.66
72585;BME280;60618;40.084;32.908;2023-05-02T02:02:28;90009.00;;;4.94;60.58
72585;BME280;60618;40.084;32.908;2023-05-02T02:04:56;90008.19;;;4.72;61.27
72585;BME280;60618;40.084;32.908;2023-05-02T02:07:25;90014.41;;;4.65;62.11
72585;BME280;60618;40.084;32.908;2023-05-02T02:09:52;90017.34;;;4.67;62.53
72585;BME280;60618;40.084;32.908;2023-05-02T02:12:26;90011.56;;;4.98;61.75
72585;BME280;60618;40.084;32.908;2023-05-02T02:15:08;90018.63;;;4.75;63.99
72585;BME280;60618;40.084;32.908;2023-05-02T02:17:42;90023.16;;;4.49;65.35
72585;BME280;60618;40.084;32.908;2023-05-02T02:20:11;90017.69;;;4.69;63.90
72585;BME280;60618;40.084;32.908;2023-05-02T02:22:40;90015.88;;;4.66;63.26
72585;BME280;60618;40.084;32.908;2023-05-02T02:25:15;90014.09;;;4.63;62.77
72585;BME280;60618;40.084;32.908;2023-05-02T02:27:43;90015.59;;;4.77;61.87
72585;BME280;60618;40.084;32.908;2023-05-02T02:30:10;90010.94;;;4.81;61.69
72585;BME280;60618;40.084;32.908;2023-05-02T02:32:37;90018.44;;;4.95;60.98
72585;BME280;60618;40.084;32.908;2023-05-02T02:35:04;90015.38;;;4.97;60.84
72585;BME280;60618;40.084;32.908;2023-05-02T02:37:35;90030.25;;;5.03;60.42
72585;BME280;60618;40.084;32.908;2023-05-02T02:51:22;90033.09;;;4.96;61.28
72585;BME280;60618;40.084;32.908;2023-05-02T02:54:00;90033.44;;;4.86;61.51
72585;BME280;60618;40.084;32.908;2023-05-02T02:56:59;90035.00;;;4.70;62.39
72585;BME280;60618;40.084;32.908;2023-05-02T02:59:36;90033.31;;;4.76;61.64
72585;BME280;60618;40.084;32.908;2023-05-02T03:02:07;90037.53;;;4.74;61.77
72585;BME280;60618;40.084;32.908;2023-05-02T03:04:37;90048.63;;;4.81;61.21
72585;BME280;60618;40.084;32.908;2023-05-02T03:07:05;90052.00;;;4.95;60.94
72585;BME280;60618;40.084;32.908;2023-05-02T03:09:42;90057.16;;;4.98;60.87
72585;BME280;60618;40.084;32.908;2023-05-02T03:12:10;90055.78;;;4.81;61.71
72585;BME280;60618;40.084;32.908;2023-05-02T03:14:37;90058.44;;;4.94;61.80
72585;BME280;60618;40.084;32.908;2023-05-02T03:17:05;90052.31;;;4.84;61.59
72585;BME280;60618;40.084;32.908;2023-05-02T03:19:33;90053.03;;;4.84;62.26
72585;BME280;60618;40.084;32.908;2023-05-02T03:21:59;90057.47;;;5.00;61.62
72585;BME280;60618;40.084;32.908;2023-05-02T03:24:26;90065.94;;;5.08;61.53
72585;BME280;60618;40.084;32.908;2023-05-02T03:26:54;90061.59;;;4.89;63.70
72585;BME280;60618;40.084;32.908;2023-05-02T03:29:21;90064.72;;;4.45;65.81
72585;BME280;60618;40.084;32.908;2023-05-02T03:31:48;90066.72;;;4.54;65.42
72585;BME280;60618;40.084;32.908;2023-05-02T03:34:15;90068.25;;;4.80;64.36
72585;BME280;60618;40.084;32.908;2023-05-02T03:36:42;90084.09;;;5.06;63.27
72585;BME280;60618;40.084;32.908;2023-05-02T03:39:09;90070.25;;;5.02;62.96
72585;BME280;60618;40.084;32.908;2023-05-02T03:41:36;90081.16;;;5.04;63.18
72585;BME280;60618;40.084;32.908;2023-05-02T03:44:03;90076.56;;;5.30;60.55
72585;BME280;60618;40.084;32.908;2023-05-02T03:46:29;90079.75;;;5.12;59.51
72585;BME280;60618;40.084;32.908;2023-05-02T03:48:57;90088.72;;;5.27;63.42
72585;BME280;60618;40.084;32.908;2023-05-02T03:51:24;90085.03;;;5.37;63.73
72585;BME280;60618;40.084;32.908;2023-05-02T03:53:50;90090.75;;;5.49;62.46
72585;BME280;60618;40.084;32.908;2023-05-02T03:56:18;90105.81;;;5.61;64.44
72585;BME280;60618;40.084;32.908;2023-05-02T03:58:45;90097.66;;;5.81;64.35
72585;BME280;60618;40.084;32.908;2023-05-02T04:01:13;90093.75;;;6.20;63.84
72585;BME280;60618;40.084;32.908;2023-05-02T04:03:40;90091.75;;;6.68;58.00
72585;BME280;60618;40.084;32.908;2023-05-02T04:06:07;90106.75;;;6.93;55.00
72585;BME280;60618;40.084;32.908;2023-05-02T04:08:34;90101.53;;;7.11;60.03
72585;BME280;60618;40.084;32.908;2023-05-02T04:11:01;90100.13;;;6.66;61.53
72585;BME280;60618;40.084;32.908;2023-05-02T04:13:28;90099.09;;;6.95;60.70
72585;BME280;60618;40.084;32.908;2023-05-02T04:15:55;90102.34;;;7.30;60.15
72585;BME280;60618;40.084;32.908;2023-05-02T04:18:22;90108.03;;;7.59;58.73
72585;BME280;60618;40.084;32.908;2023-05-02T04:20:49;90115.88;;;7.72;58.81
72585;BME280;60618;40.084;32.908;2023-05-02T04:23:16;90111.50;;;7.96;56.02
72585;BME280;60618;40.084;32.908;2023-05-02T04:25:53;90106.34;;;7.84;53.73
72585;BME280;60618;40.084;32.908;2023-05-02T04:28:21;90108.44;;;8.07;50.33
72585;BME280;60618;40.084;32.908;2023-05-02T04:30:48;90106.97;;;8.06;48.98
72585;BME280;60618;40.084;32.908;2023-05-02T04:33:16;90112.72;;;8.05;48.44
72585;BME280;60618;40.084;32.908;2023-05-02T04:35:43;90112.94;;;7.79;47.07
72585;BME280;60618;40.084;32.908;2023-05-02T04:38:11;90113.97;;;7.73;47.84
72585;BME280;60618;40.084;32.908;2023-05-02T04:40:38;90115.72;;;7.66;48.44
72585;BME280;60618;40.084;32.908;2023-05-02T04:43:05;90108.41;;;7.89;48.28
72585;BME280;60618;40.084;32.908;2023-05-02T04:45:36;90119.59;;;7.75;47.16
72585;BME280;60618;40.084;32.908;2023-05-02T04:48:03;90124.16;;;7.74;45.24
72585;BME280;60618;40.084;32.908;2023-05-02T04:50:30;90121.91;;;7.73;45.75
72585;BME280;60618;40.084;32.908;2023-05-02T04:52:57;90118.34;;;7.57;44.12
72585;BME280;60618;40.084;32.908;2023-05-02T04:55:24;90126.59;;;7.59;45.87
72585;BME280;60618;40.084;32.908;2023-05-02T04:57:51;90122.09;;;7.87;45.17
72585;BME280;60618;40.084;32.908;2023-05-02T05:00:18;90127.88;;;7.95;45.89
72585;BME280;60618;40.084;32.908;2023-05-02T05:02:44;90124.03;;;7.96;45.42
72585;BME280;60618;40.084;32.908;2023-05-02T05:05:11;90125.81;;;8.08;44.58
72585;BME280;60618;40.084;32.908;2023-05-02T05:07:38;90133.63;;;8.03;43.77
72585;BME280;60618;40.084;32.908;2023-05-02T05:10:06;90143.59;;;7.80;44.25
72585;BME280;60618;40.084;32.908;2023-05-02T05:12:33;90132.78;;;8.24;43.37
72585;BME280;60618;40.084;32.908;2023-05-02T05:14:59;90133.41;;;8.37;44.79
72585;BME280;60618;40.084;32.908;2023-05-02T05:17:26;90141.97;;;8.60;42.19
72585;BME280;60618;40.084;32.908;2023-05-02T05:19:53;90136.94;;;8.52;42.81
72585;BME280;60618;40.084;32.908;2023-05-02T05:22:20;90151.03;;;8.04;44.88
72585;BME280;60618;40.084;32.908;2023-05-02T05:24:53;90142.13;;;8.38;44.69
72585;BME280;60618;40.084;32.908;2023-05-02T05:27:20;90147.44;;;8.38;44.70
72585;BME280;60618;40.084;32.908;2023-05-02T05:29:47;90148.00;;;8.60;44.35
72585;BME280;60618;40.084;32.908;2023-05-02T05:32:14;90152.59;;;8.60;42.83
72585;BME280;60618;40.084;32.908;2023-05-02T05:34:41;90151.84;;;8.50;42.98
72585;BME280;60618;40.084;32.908;2023-05-02T05:37:08;90157.16;;;8.68;42.28
72585;BME280;60618;40.084;32.908;2023-05-02T05:39:35;90158.34;;;8.67;44.14
72585;BME280;60618;40.084;32.908;2023-05-02T05:42:02;90151.28;;;8.73;43.72
72585;BME280;60618;40.084;32.908;2023-05-02T05:44:28;90157.28;;;9.01;42.56
72585;BME280;60618;40.084;32.908;2023-05-02T05:46:55;90161.22;;;9.24;43.92
72585;BME280;60618;40.084;32.908;2023-05-02T05:49:22;90159.94;;;9.01;44.25
72585;BME280;60618;40.084;32.908;2023-05-02T05:51:49;90158.63;;;8.97;44.36
72585;BME280;60618;40.084;32.908;2023-05-02T05:54:16;90152.09;;;9.07;44.75
72585;BME280;60618;40.084;32.908;2023-05-02T05:56:43;90152.53;;;9.15;45.07
72585;BME280;60618;40.084;32.908;2023-05-02T05:59:10;90153.81;;;9.37;44.26
72585;BME280;60618;40.084;32.908;2023-05-02T06:01:37;90156.84;;;9.96;44.63
72585;BME280;60618;40.084;32.908;2023-05-02T06:04:05;90154.53;;;10.22;41.98
72585;BME280;60618;40.084;32.908;2023-05-02T06:06:32;90148.47;;;10.22;41.04
72585;BME280;60618;40.084;32.908;2023-05-02T06:09:00;90152.47;;;10.17;43.20
72585;BME280;60618;40.084;32.908;2023-05-02T06:11:27;90161.47;;;10.53;42.17
72585;BME280;60618;40.084;32.908;2023-05-02T06:13:54;90146.78;;;10.96;41.78
72585;BME280;60618;40.084;32.908;2023-05-02T06:16:21;90157.19;;;11.53;41.19
72585;BME280;60618;40.084;32.908;2023-05-02T06:18:50;90150.53;;;11.93;37.96
72585;BME280;60618;40.084;32.908;2023-05-02T06:21:17;90154.75;;;12.14;38.25
72585;BME280;60618;40.084;32.908;2023-05-02T06:23:44;90153.47;;;11.95;35.78
72585;BME280;60618;40.084;32.908;2023-05-02T06:26:11;90149.28;;;11.44;36.16
72585;BME280;60618;40.084;32.908;2023-05-02T06:28:37;90166.84;;;11.51;35.06
72585;BME280;60618;40.084;32.908;2023-05-02T06:31:04;90155.78;;;11.73;35.01
72585;BME280;60618;40.084;32.908;2023-05-02T06:33:33;90159.66;;;11.72;34.33
72585;BME280;60618;40.084;32.908;2023-05-02T06:36:00;90159.75;;;11.48;32.54
72585;BME280;60618;40.084;32.908;2023-05-02T06:38:28;90164.19;;;11.36;34.26
72585;BME280;60618;40.084;32.908;2023-05-02T06:40:55;90169.34;;;11.54;33.79
72585;BME280;60618;40.084;32.908;2023-05-02T06:43:22;90167.13;;;11.82;34.17
72585;BME280;60618;40.084;32.908;2023-05-02T06:45:52;90171.44;;;12.30;33.59
72585;BME280;60618;40.084;32.908;2023-05-02T06:48:19;90170.69;;;11.94;33.46
72585;BME280;60618;40.084;32.908;2023-05-02T06:50:47;90172.09;;;12.04;33.62
72585;BME280;60618;40.084;32.908;2023-05-02T06:53:14;90166.31;;;12.26;31.88
72585;BME280;60618;40.084;32.908;2023-05-02T06:55:41;90160.50;;;12.48;32.64
72585;BME280;60618;40.084;32.908;2023-05-02T06:58:08;90159.44;;;12.40;32.33
72585;BME280;60618;40.084;32.908;2023-05-02T07:00:35;90164.50;;;12.03;32.00
72585;BME280;60618;40.084;32.908;2023-05-02T07:03:02;90161.69;;;11.62;32.20
72585;BME280;60618;40.084;32.908;2023-05-02T07:05:29;90166.75;;;11.45;32.50
72585;BME280;60618;40.084;32.908;2023-05-02T07:07:56;90164.44;;;11.38;32.72
72585;BME280;60618;40.084;32.908;2023-05-02T07:10:23;90170.81;;;11.85;33.12
72585;BME280;60618;40.084;32.908;2023-05-02T07:12:50;90168.28;;;12.11;33.58
72585;BME280;60618;40.084;32.908;2023-05-02T07:15:17;90168.78;;;11.80;32.36
72585;BME280;60618;40.084;32.908;2023-05-02T07:17:44;90163.63;;;11.91;32.35
72585;BME280;60618;40.084;32.908;2023-05-02T07:20:11;90162.44;;;12.27;33.11
72585;BME280;60618;40.084;32.908;2023-05-02T07:22:38;90160.63;;;12.18;31.68
72585;BME280;60618;40.084;32.908;2023-05-02T07:25:05;90160.25;;;12.66;30.29
72585;BME280;60618;40.084;32.908;2023-05-02T07:27:32;90162.41;;;12.42;30.78
72585;BME280;60618;40.084;32.908;2023-05-02T07:29:59;90161.06;;;12.52;30.40
72585;BME280;60618;40.084;32.908;2023-05-02T07:32:26;90163.78;;;12.37;30.35
72585;BME280;60618;40.084;32.908;2023-05-02T07:34:56;90157.91;;;12.54;31.00
72585;BME280;60618;40.084;32.908;2023-05-02T07:37:23;90161.59;;;12.97;28.85
72585;BME280;60618;40.084;32.908;2023-05-02T07:39:50;90150.56;;;12.89;28.55
72585;BME280;60618;40.084;32.908;2023-05-02T07:42:17;90161.84;;;13.45;29.97
72585;BME280;60618;40.084;32.908;2023-05-02T07:44:44;90169.81;;;13.14;30.69
72585;BME280;60618;40.084;32.908;2023-05-02T07:47:11;90160.53;;;12.68;30.15
72585;BME280;60618;40.084;32.908;2023-05-02T07:49:37;90151.09;;;12.93;29.90
72585;BME280;60618;40.084;32.908;2023-05-02T07:52:04;90157.94;;;12.94;29.51
72585;BME280;60618;40.084;32.908;2023-05-02T07:54:31;90159.25;;;13.04;29.57
72585;BME280;60618;40.084;32.908;2023-05-02T07:56:58;90150.56;;;12.89;29.19
72585;BME280;60618;40.084;32.908;2023-05-02T07:59:25;90157.44;;;12.75;29.33
72585;BME280;60618;40.084;32.908;2023-05-02T08:01:52;90157.78;;;13.24;28.79
72585;BME280;60618;40.084;32.908;2023-05-02T08:04:19;90152.00;;;13.57;28.82
72585;BME280;60618;40.084;32.908;2023-05-02T08:06:46;90157.06;;;14.18;29.37
72585;BME280;60618;40.084;32.908;2023-05-02T08:09:13;90163.28;;;14.35;27.52
72585;BME280;60618;40.084;32.908;2023-05-02T08:11:39;90151.88;;;14.40;28.60
72585;BME280;60618;40.084;32.908;2023-05-02T08:14:06;90155.66;;;13.85;27.40
72585;BME280;60618;40.084;32.908;2023-05-02T08:16:33;90155.66;;;13.85;27.35
72585;BME280;60618;40.084;32.908;2023-05-02T08:19:00;90161.38;;;14.04;26.50
72585;BME280;60618;40.084;32.908;2023-05-02T08:21:27;90157.78;;;14.13;26.85
72585;BME280;60618;40.084;32.908;2023-05-02T08:23:57;90151.53;;;13.90;26.11
72585;BME280;60618;40.084;32.908;2023-05-02T08:26:24;90153.72;;;13.91;27.77
72585;BME280;60618;40.084;32.908;2023-05-02T08:28:51;90159.28;;;14.19;26.94
72585;BME280;60618;40.084;32.908;2023-05-02T08:31:19;90159.84;;;14.66;27.94
72585;BME280;60618;40.084;32.908;2023-05-02T08:33:46;90158.16;;;13.95;26.46
72585;BME280;60618;40.084;32.908;2023-05-02T08:36:15;90157.81;;;13.29;26.63
72585;BME280;60618;40.084;32.908;2023-05-02T08:38:44;90148.13;;;13.58;28.41
72585;BME280;60618;40.084;32.908;2023-05-02T08:41:17;90152.59;;;14.41;27.18
72585;BME280;60618;40.084;32.908;2023-05-02T08:43:45;90151.06;;;14.71;27.27
72585;BME280;60618;40.084;32.908;2023-05-02T08:46:13;90148.19;;;14.81;26.34
72585;BME280;60618;40.084;32.908;2023-05-02T08:48:43;90144.31;;;14.44;26.37
72585;BME280;60618;40.084;32.908;2023-05-02T08:51:12;90142.88;;;14.43;27.28
72585;BME280;60618;40.084;32.908;2023-05-02T08:53:39;90138.66;;;14.74;27.93
72585;BME280;60618;40.084;32.908;2023-05-02T08:56:08;90145.09;;;14.99;25.50
72585;BME280;60618;40.084;32.908;2023-05-02T08:58:36;90141.41;;;14.42;26.35
72585;BME280;60618;40.084;32.908;2023-05-02T09:01:18;90141.47;;;14.54;26.55
72585;BME280;60618;40.084;32.908;2023-05-02T09:03:46;90130.19;;;14.38;26.80
72585;BME280;60618;40.084;32.908;2023-05-02T09:06:19;90133.47;;;14.59;26.92
72585;BME280;60618;40.084;32.908;2023-05-02T09:08:50;90148.78;;;15.07;29.00
72585;BME280;60618;40.084;32.908;2023-05-02T09:11:18;90131.75;;;15.32;26.91
72585;BME280;60618;40.084;32.908;2023-05-02T09:13:46;90124.66;;;14.53;26.24
72585;BME280;60618;40.084;32.908;2023-05-02T09:16:19;90134.56;;;14.90;27.42
72585;BME280;60618;40.084;32.908;2023-05-02T09:18:48;90130.16;;;14.81;27.13
72585;BME280;60618;40.084;32.908;2023-05-02T09:21:16;90120.63;;;14.80;26.33
72585;BME280;60618;40.084;32.908;2023-05-02T09:23:51;90126.72;;;14.81;27.26
72585;BME280;60618;40.084;32.908;2023-05-02T09:26:24;90116.84;;;15.15;26.32
72585;BME280;60618;40.084;32.908;2023-05-02T09:28:53;90108.53;;;15.01;25.76
72585;BME280;60618;40.084;32.908;2023-05-02T09:31:25;90117.59;;;14.56;26.56
72585;BME280;60618;40.084;32.908;2023-05-02T09:34:14;90111.44;;;14.38;27.16
72585;BME280;60618;40.084;32.908;2023-05-02T09:36:46;90116.22;;;14.66;25.95
72585;BME280;60618;40.084;32.908;2023-05-02T09:39:15;90109.78;;;15.12;27.37
72585;BME280;60618;40.084;32.908;2023-05-02T09:41:44;90117.13;;;15.28;27.99
72585;BME280;60618;40.084;32.908;2023-05-02T09:44:18;90112.09;;;15.64;26.17
72585;BME280;60618;40.084;32.908;2023-05-02T09:46:47;90109.84;;;15.56;26.23
72585;BME280;60618;40.084;32.908;2023-05-02T09:49:15;90105.44;;;15.53;26.80
72585;BME280;60618;40.084;32.908;2023-05-02T09:51:42;90101.25;;;15.36;26.39
72585;BME280;60618;40.084;32.908;2023-05-02T09:54:09;90109.94;;;14.91;26.27
72585;BME280;60618;40.084;32.908;2023-05-02T09:59:19;90114.19;;;15.31;26.52
72585;BME280;60618;40.084;32.908;2023-05-02T10:01:54;90112.94;;;15.16;26.49
72585;BME280;60618;40.084;32.908;2023-05-02T10:04:21;90105.13;;;15.07;26.82
72585;BME280;60618;40.084;32.908;2023-05-02T10:06:50;90113.19;;;15.18;26.96
72585;BME280;60618;40.084;32.908;2023-05-02T10:09:19;90110.34;;;15.77;27.02
72585;BME280;60618;40.084;32.908;2023-05-02T10:11:52;90116.94;;;15.71;26.09
72585;BME280;60618;40.084;32.908;2023-05-02T10:14:21;90116.44;;;16.11;25.50
72585;BME280;60618;40.084;32.908;2023-05-02T10:17:04;90115.00;;;15.77;26.60
72585;BME280;60618;40.084;32.908;2023-05-02T10:22:04;90104.97;;;15.60;25.47
72585;BME280;60618;40.084;32.908;2023-05-02T10:24:32;90105.00;;;15.83;26.72
72585;BME280;60618;40.084;32.908;2023-05-02T10:26:59;90108.88;;;16.10;26.87
72585;BME280;60618;40.084;32.908;2023-05-02T10:29:30;90108.66;;;15.97;26.87
72585;BME280;60618;40.084;32.908;2023-05-02T10:31:59;90100.84;;;15.71;26.89
72585;BME280;60618;40.084;32.908;2023-05-02T10:34:31;90105.19;;;15.46;26.61
72585;BME280;60618;40.084;32.908;2023-05-02T10:36:58;90101.06;;;15.61;26.70
72585;BME280;60618;40.084;32.908;2023-05-02T10:39:26;90100.13;;;15.76;27.28
72585;BME280;60618;40.084;32.908;2023-05-02T10:41:55;90090.84;;;15.82;26.27
72585;BME280;60618;40.084;32.908;2023-05-02T10:44:36;90100.34;;;16.11;25.74
72585;BME280;60618;40.084;32.908;2023-05-02T10:47:19;90090.81;;;16.05;25.81
72585;BME280;60618;40.084;32.908;2023-05-02T10:50:00;90088.53;;;16.48;25.99
72585;BME280;60618;40.084;32.908;2023-05-02T10:52:29;90098.19;;;16.85;24.88
72585;BME280;60618;40.084;32.908;2023-05-02T10:55:15;90083.88;;;17.53;24.42
72585;BME280;60618;40.084;32.908;2023-05-02T11:00:32;90089.50;;;16.45;24.89
72585;BME280;60618;40.084;32.908;2023-05-02T11:03:00;90087.63;;;16.17;26.34
72585;BME280;60618;40.084;32.908;2023-05-02T11:05:28;90080.03;;;16.16;26.28
72585;BME280;60618;40.084;32.908;2023-05-02T11:10:41;90084.22;;;15.89;27.33
72585;BME280;60618;40.084;32.908;2023-05-02T11:13:09;90079.56;;;16.06;26.40
72585;BME280;60618;40.084;32.908;2023-05-02T11:18:10;90078.44;;;16.60;26.13
72585;BME280;60618;40.084;32.908;2023-05-02T11:20:42;90073.50;;;15.67;27.71
72585;BME280;60618;40.084;32.908;2023-05-02T11:28:43;90073.69;;;16.08;26.76
72585;BME280;60618;40.084;32.908;2023-05-02T11:34:00;90082.94;;;15.12;28.42
72585;BME280;60618;40.084;32.908;2023-05-02T11:36:31;90072.97;;;15.40;28.49
72585;BME280;60618;40.084;32.908;2023-05-02T11:39:03;90064.38;;;16.26;27.07
72585;BME280;60618;40.084;32.908;2023-05-02T11:41:48;90069.31;;;16.05;26.92
72585;BME280;60618;40.084;32.908;2023-05-02T11:44:15;90065.38;;;16.23;26.28
72585;BME280;60618;40.084;32.908;2023-05-02T11:46:43;90069.31;;;16.10;26.37
72585;BME280;60618;40.084;32.908;2023-05-02T11:49:12;90060.41;;;16.55;26.68
72585;BME280;60618;40.084;32.908;2023-05-02T11:51:40;90064.13;;;16.24;27.33
72585;BME280;60618;40.084;32.908;2023-05-02T11:54:07;90062.94;;;16.08;27.99
72585;BME280;60618;40.084;32.908;2023-05-02T11:56:34;90067.38;;;16.00;26.99
72585;BME280;60618;40.084;32.908;2023-05-02T11:59:02;90057.81;;;16.15;27.11
72585;BME280;60618;40.084;32.908;2023-05-02T12:01:29;90053.78;;;16.50;26.70
72585;BME280;60618;40.084;32.908;2023-05-02T12:04:07;90049.34;;;16.75;26.07
72585;BME280;60618;40.084;32.908;2023-05-02T12:06:36;90051.06;;;17.19;25.93
72585;BME280;60618;40.084;32.908;2023-05-02T12:11:34;90048.75;;;17.35;26.35
72585;BME280;60618;40.084;32.908;2023-05-02T12:14:02;90048.78;;;16.88;28.48
72585;BME280;60618;40.084;32.908;2023-05-02T12:16:29;90044.44;;;16.73;26.36
72585;BME280;60618;40.084;32.908;2023-05-02T12:18:57;90051.47;;;16.07;26.99
72585;BME280;60618;40.084;32.908;2023-05-02T12:21:26;90046.09;;;16.07;28.42
72585;BME280;60618;40.084;32.908;2023-05-02T12:23:54;90043.66;;;16.09;28.68
72585;BME280;60618;40.084;32.908;2023-05-02T12:26:25;90036.06;;;16.08;28.88
72585;BME280;60618;40.084;32.908;2023-05-02T12:28:53;90035.75;;;16.45;27.83
72585;BME280;60618;40.084;32.908;2023-05-02T12:31:21;90029.63;;;16.44;28.24
72585;BME280;60618;40.084;32.908;2023-05-02T12:33:48;90033.75;;;16.51;29.35
72585;BME280;60618;40.084;32.908;2023-05-02T12:36:16;90026.06;;;16.08;28.25
72585;BME280;60618;40.084;32.908;2023-05-02T12:38:57;90028.78;;;16.03;28.82
72585;BME280;60618;40.084;32.908;2023-05-02T12:41:35;90038.31;;;15.87;29.39
72585;BME280;60618;40.084;32.908;2023-05-02T12:44:03;90024.88;;;15.81;28.63
72585;BME280;60618;40.084;32.908;2023-05-02T12:46:31;90024.16;;;15.81;28.54
72585;BME280;60618;40.084;32.908;2023-05-02T12:49:05;90018.50;;;16.07;28.58
72585;BME280;60618;40.084;32.908;2023-05-02T12:51:32;90025.41;;;15.69;27.72
72585;BME280;60618;40.084;32.908;2023-05-02T12:54:00;90021.25;;;15.68;28.74
72585;BME280;60618;40.084;32.908;2023-05-02T12:56:28;90017.59;;;15.71;28.63
72585;BME280;60618;40.084;32.908;2023-05-02T12:58:54;90009.28;;;15.69;28.95
72585;BME280;60618;40.084;32.908;2023-05-02T13:01:21;90019.03;;;15.77;27.60
72585;BME280;60618;40.084;32.908;2023-05-02T13:03:50;90010.50;;;15.68;28.26
72585;BME280;60618;40.084;32.908;2023-05-02T13:06:17;90002.66;;;15.81;27.45
72585;BME280;60618;40.084;32.908;2023-05-02T13:08:44;90004.16;;;15.82;27.82
72585;BME280;60618;40.084;32.908;2023-05-02T13:11:11;89998.22;;;16.11;28.95
72585;BME280;60618;40.084;32.908;2023-05-02T13:13:44;89996.38;;;15.73;28.28
72585;BME280;60618;40.084;32.908;2023-05-02T13:16:11;90001.22;;;15.91;27.98
72585;BME280;60618;40.084;32.908;2023-05-02T13:18:38;90009.75;;;15.89;28.10
72585;BME280;60618;40.084;32.908;2023-05-02T13:21:05;90012.72;;;15.47;27.37
72585;BME280;60618;40.084;32.908;2023-05-02T13:23:32;90011.00;;;15.60;27.26
72585;BME280;60618;40.084;32.908;2023-05-02T13:25:59;90006.59;;;15.80;27.72
72585;BME280;60618;40.084;32.908;2023-05-02T13:28:26;90001.63;;;16.06;28.06
72585;BME280;60618;40.084;32.908;2023-05-02T13:30:53;90004.53;;;16.20;26.92
72585;BME280;60618;40.084;32.908;2023-05-02T13:33:20;90009.59;;;16.45;25.84
72585;BME280;60618;40.084;32.908;2023-05-02T13:35:47;90004.59;;;16.72;26.10
72585;BME280;60618;40.084;32.908;2023-05-02T13:38:14;90010.25;;;16.57;26.90
72585;BME280;60618;40.084;32.908;2023-05-02T13:40:41;90007.78;;;16.70;26.72
72585;BME280;60618;40.084;32.908;2023-05-02T13:43:08;90003.75;;;16.88;26.45
72585;BME280;60618;40.084;32.908;2023-05-02T13:45:35;90005.09;;;16.70;25.52
72585;BME280;60618;40.084;32.908;2023-05-02T13:48:02;89998.28;;;16.58;26.67
72585;BME280;60618;40.084;32.908;2023-05-02T13:50:29;89992.41;;;17.07;25.04
72585;BME280;60618;40.084;32.908;2023-05-02T13:52:55;89992.59;;;16.67;25.94